Time;durP1;ratioP1;P1;durP2;ratioP2;P2;SDS_P1;SDS_P2;PMS_P1;PMS_P2;Temp;Humidity;BMP_temperature;BMP_pressure;BME280_temperature;BME280_humidity;BME280_pressure;Samples;Min_cycle;Max_cycle;Signal;HPM_P1;HPM_P2
2023/03/22 00:00:27;;;;;;;22.60;15.73;;;11.00;99.90;;;;;;5093031;28;20696;-74
2023/03/22 00:02:55;;;;;;;22.13;16.13;;;11.00;99.90;;;;;;5073934;28;20207;-76
2023/03/22 00:05:21;;;;;;;21.70;16.07;;;11.00;99.90;;;;;;5075328;28;20589;-76
2023/03/22 00:07:49;;;;;;;19.97;14.57;;;10.90;99.90;;;;;;5085231;28;20230;-75
2023/03/22 00:10:16;;;;;;;22.60;15.60;;;10.90;99.90;;;;;;5086103;28;20194;-75
2023/03/22 00:12:42;;;;;;;18.97;13.83;;;10.80;99.90;;;;;;5074483;28;20282;-74
2023/03/22 00:15:09;;;;;;;24.47;15.30;;;10.80;99.90;;;;;;5071279;28;20229;-76
2023/03/22 00:17:35;;;;;;;22.77;14.87;;;10.80;99.90;;;;;;5085289;28;20202;-76
2023/03/22 00:20:05;;;;;;;22.63;14.80;;;10.80;99.90;;;;;;5074853;28;20680;-75
2023/03/22 00:22:31;;;;;;;21.73;15.33;;;10.70;99.90;;;;;;5085797;28;20181;-76
2023/03/22 00:24:57;;;;;;;24.93;15.50;;;10.70;99.90;;;;;;5070349;28;20207;-75
2023/03/22 00:27:23;;;;;;;23.37;15.53;;;10.70;99.90;;;;;;5088282;28;20206;-75
2023/03/22 00:29:51;;;;;;;23.67;15.23;;;10.70;99.90;;;;;;5072364;28;20221;-76
2023/03/22 00:32:17;;;;;;;23.40;15.20;;;10.60;99.90;;;;;;5075219;28;20217;-75
2023/03/22 00:34:42;;;;;;;24.27;15.37;;;10.60;99.90;;;;;;5073531;28;20171;-74
2023/03/22 00:37:08;;;;;;;26.07;15.60;;;10.60;99.90;;;;;;5088952;28;20170;-75
2023/03/22 00:39:34;;;;;;;24.00;15.57;;;10.60;99.90;;;;;;5074870;28;20691;-76
2023/03/22 00:42:00;;;;;;;22.40;15.27;;;10.60;99.90;;;;;;5084989;28;20289;-76
2023/03/22 00:44:25;;;;;;;22.67;15.40;;;10.60;99.90;;;;;;5073654;28;20209;-76
2023/03/22 00:46:51;;;;;;;25.10;15.63;;;10.60;99.90;;;;;;5072180;28;20202;-76
2023/03/22 00:49:17;;;;;;;23.67;15.43;;;10.60;99.90;;;;;;5069294;28;20256;-76
2023/03/22 00:51:43;;;;;;;19.93;13.87;;;10.70;99.90;;;;;;5085123;28;20305;-76
2023/03/22 00:54:09;;;;;;;21.13;15.30;;;10.60;99.90;;;;;;5089072;28;20725;-77
2023/03/22 00:56:37;;;;;;;26.13;15.13;;;10.60;99.90;;;;;;5073988;28;20719;-76
2023/03/22 00:59:03;;;;;;;21.30;15.20;;;10.50;99.90;;;;;;5086873;28;20225;-75
2023/03/22 01:01:29;;;;;;;22.67;15.20;;;10.50;99.90;;;;;;5073393;28;20269;-75
2023/03/22 01:03:54;;;;;;;21.97;15.93;;;10.50;99.90;;;;;;5082146;28;20324;-76
2023/03/22 01:06:20;;;;;;;18.37;14.87;;;10.50;99.90;;;;;;5069398;28;20205;-76
2023/03/22 01:08:49;;;;;;;20.10;15.17;;;10.50;99.90;;;;;;5069598;28;20587;-75
2023/03/22 01:11:15;;;;;;;22.03;14.93;;;10.50;99.90;;;;;;5069101;28;20252;-75
2023/03/22 01:13:41;;;;;;;19.63;15.17;;;10.50;99.90;;;;;;5063646;28;20198;-76
2023/03/22 01:16:07;;;;;;;22.10;14.80;;;10.50;99.90;;;;;;5090605;28;20613;-76
2023/03/22 01:18:34;;;;;;;23.27;15.23;;;10.50;99.90;;;;;;5086327;28;20716;-74
2023/03/22 01:21:00;;;;;;;21.17;14.97;;;10.40;99.90;;;;;;5086819;28;20210;-76
2023/03/22 01:23:26;;;;;;;20.43;15.80;;;10.50;99.90;;;;;;5084614;28;20236;-76
2023/03/22 01:25:51;;;;;;;20.33;14.37;;;10.40;99.90;;;;;;5084904;28;20198;-75
2023/03/22 01:28:17;;;;;;;24.67;16.30;;;10.50;99.90;;;;;;5090968;28;20202;-73
2023/03/22 01:30:42;;;;;;;24.40;16.13;;;10.40;99.90;;;;;;5090546;28;20208;-76
2023/03/22 01:33:08;;;;;;;25.53;15.90;;;10.40;99.90;;;;;;5071605;28;20239;-75
2023/03/22 01:35:35;;;;;;;22.80;15.87;;;10.40;99.90;;;;;;5077864;28;20230;-76
2023/03/22 01:38:00;;;;;;;22.47;15.10;;;10.40;99.90;;;;;;5095133;28;20213;-75
2023/03/22 01:40:26;;;;;;;19.23;14.90;;;10.50;99.90;;;;;;5095102;28;20566;-74
2023/03/22 01:42:53;;;;;;;21.53;15.03;;;10.50;99.90;;;;;;5088400;28;20286;-75
2023/03/22 01:45:54;;;;;;;24.33;16.00;;;10.50;99.90;;;;;;5091980;28;20289;-75
2023/03/22 01:48:28;;;;;;;19.33;15.20;;;10.40;99.90;;;;;;5030007;28;20225;-75
2023/03/22 01:51:24;;;;;;;18.83;15.30;;;10.40;99.90;;;;;;5075087;28;20206;-75
2023/03/22 01:53:55;;;;;;;21.57;15.93;;;10.40;99.90;;;;;;5071667;28;20221;-75
2023/03/22 01:56:24;;;;;;;21.40;14.43;;;10.40;99.90;;;;;;5095538;28;20229;-76
2023/03/22 01:58:52;;;;;;;22.00;14.43;;;10.40;99.90;;;;;;5072743;28;20228;-75
2023/03/22 02:01:18;;;;;;;21.60;14.80;;;10.40;99.90;;;;;;5073172;28;20664;-74
2023/03/22 02:04:08;;;;;;;23.80;15.40;;;10.40;99.90;;;;;;5074971;28;20213;-76
2023/03/22 02:06:37;;;;;;;22.37;15.30;;;10.40;99.90;;;;;;5070047;28;20251;-76
2023/03/22 02:09:09;;;;;;;25.07;16.07;;;10.30;99.90;;;;;;5075195;28;20225;-77
2023/03/22 02:12:08;;;;;;;21.37;15.13;;;10.30;99.90;;;;;;5072073;28;20211;-76
2023/03/22 02:14:46;;;;;;;22.23;16.07;;;10.30;99.90;;;;;;5072766;28;20210;-76
2023/03/22 02:17:17;;;;;;;26.70;15.80;;;10.30;99.90;;;;;;5077029;28;20210;-76
2023/03/22 02:19:58;;;;;;;21.17;14.73;;;10.20;99.90;;;;;;5090212;28;20675;-76
2023/03/22 02:23:01;;;;;;;24.30;17.20;;;10.20;99.90;;;;;;5092262;28;20189;-76
2023/03/22 02:26:04;;;;;;;25.90;16.60;;;10.20;99.90;;;;;;5077962;28;20206;-76
2023/03/22 02:28:41;;;;;;;22.73;14.37;;;10.20;99.90;;;;;;5087927;28;20296;-74
2023/03/22 02:31:22;;;;;;;22.43;14.70;;;10.20;99.90;;;;;;5073847;28;20203;-76
2023/03/22 02:34:26;;;;;;;22.20;15.20;;;10.20;99.90;;;;;;5071543;28;20211;-76
2023/03/22 02:37:09;;;;;;;24.57;16.23;;;10.20;99.90;;;;;;5088743;28;20199;-75
2023/03/22 02:39:53;;;;;;;22.57;15.60;;;10.10;99.90;;;;;;5069548;28;20321;-75
2023/03/22 02:42:18;;;;;;;20.43;14.40;;;10.10;99.90;;;;;;5085305;28;20229;-75
2023/03/22 02:45:02;;;;;;;23.87;15.13;;;10.10;99.90;;;;;;5074869;28;20715;-76
2023/03/22 02:47:55;;;;;;;22.43;16.33;;;10.10;99.90;;;;;;5086105;28;20297;-74
2023/03/22 02:50:27;;;;;;;20.13;15.37;;;10.10;99.90;;;;;;5084608;28;20203;-76
2023/03/22 02:53:04;;;;;;;23.60;15.17;;;10.10;99.90;;;;;;5092916;28;21459;-74
2023/03/22 02:55:53;;;;;;;21.87;15.50;;;10.10;99.90;;;;;;5092883;28;20177;-76
2023/03/22 02:58:32;;;;;;;20.63;14.77;;;10.10;99.90;;;;;;5058412;28;20215;-76
2023/03/22 03:01:05;;;;;;;19.43;14.90;;;10.10;99.90;;;;;;5069855;28;20211;-76
2023/03/22 03:03:32;;;;;;;25.10;15.80;;;10.10;99.90;;;;;;5075609;28;20493;-76
2023/03/22 03:06:07;;;;;;;22.90;14.40;;;10.00;99.90;;;;;;5071265;28;20207;-75
2023/03/22 03:08:35;;;;;;;20.70;14.27;;;10.10;99.90;;;;;;5086507;28;20224;-75
2023/03/22 03:11:01;;;;;;;21.77;15.17;;;10.00;99.90;;;;;;5073987;28;20229;-74
2023/03/22 03:13:27;;;;;;;22.70;14.77;;;10.00;99.90;;;;;;5071225;28;20637;-74
2023/03/22 03:15:58;;;;;;;20.90;14.53;;;10.00;99.90;;;;;;5091238;28;20229;-73
2023/03/22 03:18:48;;;;;;;20.20;14.20;;;9.90;99.90;;;;;;5071369;28;20209;-74
2023/03/22 03:21:33;;;;;;;19.63;14.63;;;9.90;99.90;;;;;;5087596;28;20194;-75
2023/03/22 03:23:59;;;;;;;21.77;14.80;;;9.90;99.90;;;;;;5089553;28;20197;-74
2023/03/22 03:26:37;;;;;;;21.53;14.57;;;9.80;99.90;;;;;;5074270;28;20194;-75
2023/03/22 03:29:28;;;;;;;22.47;15.37;;;9.80;99.90;;;;;;5073389;28;20246;-76
2023/03/22 03:31:54;;;;;;;23.83;16.40;;;9.80;99.90;;;;;;5072226;28;20206;-74
2023/03/22 03:34:35;;;;;;;22.33;15.50;;;9.70;99.90;;;;;;5085221;28;20166;-76
2023/03/22 03:37:07;;;;;;;18.33;14.47;;;9.70;99.90;;;;;;5071519;28;20221;-75
2023/03/22 03:39:44;;;;;;;22.23;15.67;;;9.80;99.90;;;;;;5064140;28;20215;-77
2023/03/22 03:42:15;;;;;;;22.00;15.00;;;9.80;99.90;;;;;;5076724;28;20229;-75
2023/03/22 03:44:42;;;;;;;19.03;14.13;;;9.80;99.90;;;;;;5081032;28;20232;-75
2023/03/22 03:47:09;;;;;;;21.10;15.53;;;9.80;99.90;;;;;;5081121;28;20211;-75
2023/03/22 03:49:35;;;;;;;21.83;15.23;;;9.80;99.90;;;;;;5066800;28;20225;-74
2023/03/22 03:52:03;;;;;;;22.27;15.27;;;9.80;99.90;;;;;;5068711;28;20570;-74
2023/03/22 03:54:28;;;;;;;22.87;15.63;;;9.80;99.90;;;;;;5081091;28;20202;-75
2023/03/22 03:56:54;;;;;;;23.50;15.93;;;9.80;99.90;;;;;;5065713;28;20205;-75
2023/03/22 03:59:20;;;;;;;20.50;14.73;;;9.90;99.90;;;;;;5074103;28;20214;-75
2023/03/22 04:01:51;;;;;;;22.47;14.40;;;9.80;99.90;;;;;;5079272;28;20208;-75
2023/03/22 04:04:26;;;;;;;20.00;13.70;;;9.80;99.90;;;;;;5082751;28;20174;-75
2023/03/22 04:06:57;;;;;;;21.10;14.20;;;9.80;99.90;;;;;;5092348;28;20205;-75
2023/03/22 04:09:26;;;;;;;23.10;15.37;;;9.80;99.90;;;;;;5072073;28;20206;-74
2023/03/22 04:11:52;;;;;;;21.77;14.53;;;9.80;99.90;;;;;;5090782;28;20279;-75
2023/03/22 04:14:18;;;;;;;21.43;15.67;;;9.80;99.90;;;;;;5085827;28;20206;-75
2023/03/22 04:16:44;;;;;;;20.53;15.00;;;9.90;99.90;;;;;;5083339;28;20175;-75
2023/03/22 04:19:10;;;;;;;22.77;14.60;;;9.90;99.90;;;;;;5068058;28;20194;-75
2023/03/22 04:21:35;;;;;;;21.00;14.13;;;9.90;99.90;;;;;;5085587;28;20235;-75
2023/03/22 04:24:01;;;;;;;16.90;13.50;;;9.90;99.90;;;;;;5070132;28;20203;-75
2023/03/22 04:26:27;;;;;;;19.93;14.10;;;9.90;99.90;;;;;;5074876;28;20278;-76
2023/03/22 04:28:53;;;;;;;21.23;14.80;;;9.90;99.90;;;;;;5084508;28;20230;-76
2023/03/22 04:31:18;;;;;;;18.80;13.33;;;9.90;99.90;;;;;;5064692;28;20194;-74
2023/03/22 04:33:46;;;;;;;21.00;13.80;;;9.90;99.90;;;;;;5070765;28;20273;-76
2023/03/22 04:36:16;;;;;;;18.97;13.17;;;9.90;99.90;;;;;;5085958;28;20199;-76
2023/03/22 04:38:42;;;;;;;22.17;14.00;;;9.90;99.90;;;;;;5080760;28;20218;-75
2023/03/22 04:41:09;;;;;;;24.17;13.70;;;9.90;99.90;;;;;;5065119;28;20209;-76
2023/03/22 04:43:38;;;;;;;18.53;13.13;;;9.90;99.90;;;;;;5070188;28;20543;-76
2023/03/22 04:46:05;;;;;;;18.27;13.57;;;9.90;99.90;;;;;;5067591;28;20228;-76
2023/03/22 04:48:31;;;;;;;19.07;14.17;;;9.80;99.90;;;;;;5080856;28;20210;-76
2023/03/22 04:51:02;;;;;;;22.17;13.73;;;9.90;99.90;;;;;;5082913;28;20378;-77
2023/03/22 04:53:28;;;;;;;19.40;14.93;;;9.90;99.90;;;;;;5069823;28;20195;-75
2023/03/22 04:55:57;;;;;;;20.43;13.47;;;9.80;99.90;;;;;;5068471;28;20787;-74
2023/03/22 04:58:24;;;;;;;17.37;13.43;;;9.90;99.90;;;;;;5082656;28;20173;-76
2023/03/22 05:00:51;;;;;;;22.52;16.38;;;9.80;99.90;;;;;;5064788;28;20792;-75
2023/03/22 05:03:19;;;;;;;18.03;14.40;;;9.80;99.90;;;;;;5078704;28;20214;-76
2023/03/22 05:05:56;;;;;;;24.00;13.87;;;9.70;99.90;;;;;;5068622;28;20277;-76
2023/03/22 05:08:26;;;;;;;16.37;12.77;;;9.80;99.90;;;;;;5071935;28;20277;-76
2023/03/22 05:10:53;;;;;;;21.00;13.63;;;9.80;99.90;;;;;;5082784;28;20178;-76
2023/03/22 05:13:20;;;;;;;20.37;14.30;;;9.80;99.90;;;;;;5083216;28;20182;-76
2023/03/22 05:15:47;;;;;;;18.33;13.37;;;9.80;99.90;;;;;;5083743;28;20266;-76
2023/03/22 05:18:19;;;;;;;18.77;13.17;;;9.90;99.90;;;;;;5079438;28;20213;-76
2023/03/22 05:20:46;;;;;;;18.40;12.17;;;9.90;99.90;;;;;;5068802;28;20221;-76
2023/03/22 05:23:13;;;;;;;16.80;12.47;;;9.90;99.90;;;;;;5078877;28;20198;-75
2023/03/22 05:25:39;;;;;;;20.00;12.60;;;9.90;99.90;;;;;;5068011;28;20162;-76
2023/03/22 05:28:05;;;;;;;17.23;12.87;;;10.00;99.90;;;;;;5066913;28;20195;-76
2023/03/22 05:30:32;;;;;;;19.23;12.97;;;10.00;99.90;;;;;;5068266;28;20614;-76
2023/03/22 05:32:59;;;;;;;18.37;13.13;;;9.90;99.90;;;;;;5078533;28;20224;-76
2023/03/22 05:35:25;;;;;;;16.70;12.60;;;10.00;99.90;;;;;;5082050;28;20194;-75
2023/03/22 05:37:52;;;;;;;20.03;12.40;;;10.00;99.90;;;;;;5067079;28;20661;-76
2023/03/22 05:40:18;;;;;;;18.37;12.87;;;10.00;99.90;;;;;;5064126;28;21227;-76
2023/03/22 05:42:44;;;;;;;19.70;12.87;;;9.90;99.90;;;;;;5066228;28;20198;-76
2023/03/22 05:45:10;;;;;;;17.80;12.33;;;9.90;99.90;;;;;;5081848;28;20294;-76
2023/03/22 05:47:38;;;;;;;18.57;12.80;;;9.90;99.90;;;;;;5083463;28;20297;-75
2023/03/22 05:50:05;;;;;;;20.05;14.82;;;10.00;99.90;;;;;;5068035;28;20409;-76
2023/03/22 05:52:31;;;;;;;17.23;12.07;;;10.00;99.90;;;;;;5062794;28;20168;-76
2023/03/22 05:54:56;;;;;;;21.37;12.90;;;10.00;99.90;;;;;;5065939;28;20208;-76
2023/03/22 05:57:22;;;;;;;17.90;12.13;;;9.90;99.90;;;;;;5064591;28;20233;-76
2023/03/22 05:59:48;;;;;;;19.90;11.83;;;9.90;99.90;;;;;;5065894;28;20210;-76
2023/03/22 06:02:13;;;;;;;16.53;12.10;;;10.00;99.90;;;;;;5080441;28;20210;-76
2023/03/22 06:04:40;;;;;;;17.40;12.10;;;10.00;99.90;;;;;;5072033;28;20178;-76
2023/03/22 06:07:06;;;;;;;17.27;12.53;;;10.00;99.90;;;;;;5088857;28;20194;-75
2023/03/22 06:09:32;;;;;;;20.13;12.33;;;10.10;99.90;;;;;;5085668;28;20290;-76
2023/03/22 06:11:58;;;;;;;19.97;13.00;;;10.10;99.90;;;;;;5080945;28;20697;-76
2023/03/22 06:14:24;;;;;;;17.20;12.17;;;10.10;99.90;;;;;;5086254;28;20668;-75
2023/03/22 06:16:50;;;;;;;16.30;11.70;;;10.10;99.90;;;;;;5091998;28;20167;-76
2023/03/22 06:19:16;;;;;;;18.63;13.00;;;10.10;99.90;;;;;;5072992;28;20194;-76
2023/03/22 06:21:42;;;;;;;20.17;13.07;;;10.10;99.90;;;;;;5088499;28;20202;-77
2023/03/22 06:24:08;;;;;;;16.17;11.53;;;10.10;99.90;;;;;;5066831;28;20195;-76
2023/03/22 06:26:33;;;;;;;18.47;12.33;;;10.10;99.90;;;;;;5089452;28;20201;-77
2023/03/22 06:28:59;;;;;;;19.40;12.50;;;10.10;99.90;;;;;;5072077;28;20217;-75
2023/03/22 06:31:24;;;;;;;19.30;12.43;;;10.10;99.90;;;;;;5090976;28;20721;-75
2023/03/22 06:33:50;;;;;;;21.20;12.53;;;10.10;99.90;;;;;;5088002;28;20241;-75
2023/03/22 06:36:16;;;;;;;22.33;13.20;;;10.10;99.90;;;;;;5067315;28;20202;-77
2023/03/22 06:38:41;;;;;;;22.13;13.07;;;10.10;99.90;;;;;;5086918;28;20248;-75
2023/03/22 06:41:07;;;;;;;21.43;12.67;;;10.20;99.90;;;;;;5073691;28;20256;-76
2023/03/22 06:43:32;;;;;;;21.80;13.23;;;10.10;99.90;;;;;;5069239;28;20166;-75
2023/03/22 06:45:58;;;;;;;21.13;13.67;;;10.20;99.90;;;;;;5068283;28;20195;-76
2023/03/22 06:48:24;;;;;;;19.50;13.47;;;10.30;99.90;;;;;;5071227;28;20210;-75
2023/03/22 06:50:49;;;;;;;21.07;13.43;;;10.30;99.90;;;;;;5075364;28;20198;-76
2023/03/22 06:53:15;;;;;;;20.00;12.67;;;10.30;99.90;;;;;;5072777;28;20689;-76
2023/03/22 06:55:41;;;;;;;19.03;12.63;;;10.40;99.90;;;;;;5071161;28;20162;-77
2023/03/22 06:58:06;;;;;;;20.40;13.23;;;10.40;99.90;;;;;;5089229;28;20178;-76
2023/03/22 07:00:33;;;;;;;17.67;12.50;;;10.50;99.90;;;;;;5069293;28;20210;-76
2023/03/22 07:02:59;;;;;;;18.70;12.87;;;10.50;99.90;;;;;;5072515;28;20732;-75
2023/03/22 07:05:24;;;;;;;19.87;12.70;;;10.50;99.90;;;;;;5073837;28;20210;-76
2023/03/22 07:07:50;;;;;;;18.00;12.53;;;10.50;99.90;;;;;;5070891;28;20536;-76
2023/03/22 07:10:16;;;;;;;22.23;13.87;;;10.60;99.90;;;;;;5090776;28;20256;-76
2023/03/22 07:12:41;;;;;;;17.13;12.37;;;10.70;99.90;;;;;;5088841;28;20194;-75
2023/03/22 07:15:07;;;;;;;19.30;12.20;;;10.80;99.90;;;;;;5090194;28;20202;-76
2023/03/22 07:17:33;;;;;;;19.90;12.73;;;10.80;99.90;;;;;;5066910;28;20218;-76
2023/03/22 07:19:58;;;;;;;20.33;12.30;;;10.90;99.90;;;;;;5091303;28;20651;-75
2023/03/22 07:22:24;;;;;;;19.03;12.73;;;10.90;99.90;;;;;;5089173;28;20261;-76
2023/03/22 07:24:51;;;;;;;18.53;12.57;;;11.00;99.90;;;;;;5072493;28;20250;-75
2023/03/22 07:27:18;;;;;;;19.93;12.20;;;11.10;99.90;;;;;;5086906;28;20206;-75
2023/03/22 07:29:43;;;;;;;21.03;11.87;;;11.10;99.90;;;;;;5074696;28;20206;-76
2023/03/22 07:32:10;;;;;;;20.57;12.87;;;11.10;99.90;;;;;;5072538;28;20688;-76
2023/03/22 07:34:36;;;;;;;17.97;12.40;;;11.10;99.90;;;;;;5087923;28;20255;-76
2023/03/22 07:37:02;;;;;;;18.10;13.20;;;11.30;99.90;;;;;;5087251;28;20179;-76
2023/03/22 07:39:28;;;;;;;17.10;12.33;;;11.30;99.90;;;;;;5083760;28;20198;-76
2023/03/22 07:41:54;;;;;;;17.20;12.20;;;11.50;99.90;;;;;;5069391;28;20202;-76
2023/03/22 07:44:20;;;;;;;17.03;12.27;;;11.50;99.90;;;;;;5070096;28;20207;-76
2023/03/22 07:46:46;;;;;;;19.23;12.63;;;11.80;99.90;;;;;;5067083;28;20170;-77
2023/03/22 07:49:12;;;;;;;17.33;12.07;;;12.10;99.90;;;;;;5081849;28;20199;-75
2023/03/22 07:51:38;;;;;;;17.93;11.87;;;12.30;99.90;;;;;;5088130;28;20535;-76
2023/03/22 07:54:04;;;;;;;16.33;11.07;;;12.60;99.90;;;;;;5069684;28;20231;-76
2023/03/22 07:56:30;;;;;;;15.37;11.33;;;12.80;99.90;;;;;;5070523;28;20222;-77
2023/03/22 07:58:55;;;;;;;16.70;10.90;;;13.30;99.90;;;;;;5085273;28;20601;-76
2023/03/22 08:01:21;;;;;;;12.97;9.67;;;13.70;99.90;;;;;;5084422;28;20219;-76
2023/03/22 08:03:47;;;;;;;13.05;10.40;;;14.40;99.90;;;;;;5088023;28;20202;-76
2023/03/22 08:06:13;;;;;;;12.45;9.82;;;14.90;99.90;;;;;;5071564;28;20271;-77
2023/03/22 08:08:38;;;;;;;13.65;10.27;;;14.80;99.90;;;;;;5088666;28;20632;-77
2023/03/22 08:11:06;;;;;;;14.38;10.35;;;14.50;99.90;;;;;;5062958;28;20206;-76
2023/03/22 08:13:32;;;;;;;13.82;9.63;;;14.40;99.90;;;;;;5087038;28;20174;-76
2023/03/22 08:15:57;;;;;;;13.27;10.35;;;14.50;99.90;;;;;;5088357;28;20198;-76
2023/03/22 08:18:23;;;;;;;11.65;8.90;;;14.20;99.90;;;;;;5070651;28;20214;-76
2023/03/22 08:20:56;;;;;;;16.27;9.30;;;14.40;99.90;;;;;;5083802;28;20195;-75
2023/03/22 08:23:23;;;;;;;15.93;10.75;;;14.30;99.90;;;;;;5072743;28;20202;-75
2023/03/22 08:25:49;;;;;;;14.55;10.10;;;14.20;99.90;;;;;;5089009;28;20174;-76
2023/03/22 08:28:15;;;;;;;14.88;9.82;;;14.20;99.90;;;;;;5070813;28;20725;-75
2023/03/22 08:30:42;;;;;;;16.20;11.10;;;14.30;99.90;;;;;;5073360;28;20732;-74
2023/03/22 08:33:08;;;;;;;16.45;10.48;;;14.20;99.90;;;;;;5083261;28;20580;-76
2023/03/22 08:35:33;;;;;;;13.68;10.32;;;14.20;99.90;;;;;;5073420;28;20277;-76
2023/03/22 08:38:00;;;;;;;13.82;10.07;;;14.20;99.90;;;;;;5097658;28;20210;-74
2023/03/22 08:40:26;;;;;;;14.68;10.18;;;14.30;99.90;;;;;;5081848;28;20384;-75
2023/03/22 08:42:51;;;;;;;11.90;8.95;;;14.30;99.90;;;;;;5074845;28;20202;-74
2023/03/22 08:45:17;;;;;;;12.25;9.48;;;14.30;99.90;;;;;;5095389;28;20202;-76
2023/03/22 08:47:43;;;;;;;12.73;9.40;;;14.40;99.90;;;;;;5076824;28;20217;-76
2023/03/22 08:50:10;;;;;;;12.50;10.00;;;14.50;99.90;;;;;;5083688;28;20549;-76
2023/03/22 08:52:36;;;;;;;12.85;9.75;;;14.50;99.90;;;;;;5068633;28;20550;-75
2023/03/22 08:55:03;;;;;;;14.82;10.15;;;14.50;99.90;;;;;;5073851;28;20171;-73
2023/03/22 08:57:29;;;;;;;14.93;9.82;;;14.40;99.90;;;;;;5088932;28;20226;-74
2023/03/22 08:59:56;;;;;;;14.43;10.10;;;14.50;99.90;;;;;;5072858;28;20213;-75
2023/03/22 09:02:23;;;;;;;11.95;9.15;;;14.60;99.90;;;;;;5086983;22;20222;-80
2023/03/22 09:04:49;;;;;;;16.98;10.20;;;14.70;99.90;;;;;;5070836;28;20223;-80
2023/03/22 09:07:16;;;;;;;13.15;9.15;;;14.80;99.90;;;;;;5073417;28;20214;-80
2023/03/22 09:09:42;;;;;;;13.30;9.90;;;14.70;99.90;;;;;;5089585;28;20197;-81
2023/03/22 09:12:08;;;;;;;11.80;8.88;;;14.80;99.90;;;;;;5087924;28;20198;-80
2023/03/22 09:14:34;;;;;;;13.02;8.48;;;14.90;99.90;;;;;;5083941;28;20668;-79
2023/03/22 09:16:59;;;;;;;12.00;9.02;;;15.00;99.90;;;;;;5073752;28;20269;-79
2023/03/22 09:19:25;;;;;;;14.35;8.63;;;15.20;99.90;;;;;;5090040;28;20235;-81
2023/03/22 09:21:51;;;;;;;10.60;8.55;;;15.40;99.90;;;;;;5076118;28;20194;-82
2023/03/22 09:24:17;;;;;;;12.43;9.38;;;15.80;99.90;;;;;;5084333;28;20252;-82
2023/03/22 09:26:42;;;;;;;15.07;9.27;;;15.80;99.90;;;;;;5085759;28;20209;-81
2023/03/22 09:29:09;;;;;;;14.02;8.18;;;16.00;99.90;;;;;;5072490;28;20209;-80
2023/03/22 09:31:35;;;;;;;13.23;8.32;;;16.30;99.90;;;;;;5088503;28;20205;-82
2023/03/22 09:34:00;;;;;;;12.65;9.35;;;16.10;99.90;;;;;;5086669;28;20173;-80
2023/03/22 09:36:26;;;;;;;10.02;8.27;;;16.10;99.90;;;;;;5074994;28;20712;-80
2023/03/22 09:38:52;;;;;;;12.82;9.52;;;16.10;99.90;;;;;;5093104;28;20569;-81
2023/03/22 09:41:41;;;;;;;34.35;23.65;;;16.20;99.90;;;;;;5089631;28;20214;-81
2023/03/22 09:44:14;;;;;;;17.67;11.45;;;16.10;99.90;;;;;;5071115;28;20212;-80
2023/03/22 09:46:47;;;;;;;13.60;9.80;;;16.00;99.90;;;;;;5065991;28;20252;-81
2023/03/22 09:49:17;;;;;;;12.88;8.77;;;16.40;99.90;;;;;;5073032;28;20210;-81
2023/03/22 09:51:49;;;;;;;11.88;9.50;;;16.60;99.90;;;;;;5094764;28;20546;-81
2023/03/22 09:54:34;;;;;;;17.10;12.68;;;16.60;99.90;;;;;;5101841;28;20267;-81
2023/03/22 09:57:25;;;;;;;13.55;8.85;;;16.80;99.90;;;;;;5111591;28;20211;-81
2023/03/22 10:00:10;;;;;;;11.00;8.43;;;16.90;99.90;;;;;;5114272;28;20190;-80
2023/03/22 10:02:49;;;;;;;9.80;7.90;;;17.40;99.90;;;;;;5097419;28;20218;-83
2023/03/22 10:06:03;;;;;;;12.00;8.23;;;17.70;99.90;;;;;;5107201;28;20217;-80
2023/03/22 10:08:38;;;;;;;10.25;7.53;;;17.80;99.90;;;;;;5037791;28;20736;-81
2023/03/22 10:11:21;;;;;;;11.50;8.02;;;18.10;99.90;;;;;;5038732;28;20298;-80
2023/03/22 10:14:01;;;;;;;14.25;8.18;;;17.80;99.90;;;;;;5069858;28;20229;-80
2023/03/22 10:16:32;;;;;;;14.07;7.57;;;17.30;99.90;;;;;;5094254;28;20167;-80
2023/03/22 10:19:25;;;;;;;11.88;7.70;;;17.50;99.90;;;;;;5079100;28;20516;-80
2023/03/22 10:21:53;;;;;;;10.98;7.00;;;17.40;99.90;;;;;;5078256;28;20198;-80
2023/03/22 10:24:33;;;;;;;8.93;7.22;;;17.60;99.90;;;;;;5080202;28;20296;-80
2023/03/22 10:26:59;;;;;;;10.68;6.47;;;17.40;99.90;;;;;;5071895;28;20190;-80
2023/03/22 10:29:38;;;;;;;8.95;6.20;;;17.40;99.90;;;;;;5103615;28;20232;-80
2023/03/22 10:32:16;;;;;;;8.77;6.25;;;17.50;99.90;;;;;;5102670;28;20212;-81
2023/03/22 10:34:43;;;;;;;8.48;6.72;;;17.70;99.90;;;;;;5100351;28;20163;-81
2023/03/22 10:37:19;;;;;;;10.52;6.75;;;17.80;99.90;;;;;;5095183;28;20519;-79
2023/03/22 10:39:48;;;;;;;12.77;7.85;;;17.80;99.90;;;;;;5072868;28;20198;-80
2023/03/22 10:42:22;;;;;;;9.45;6.75;;;18.00;99.90;;;;;;5072708;28;20233;-80
2023/03/22 10:44:56;;;;;;;9.95;7.40;;;17.90;99.90;;;;;;5077420;28;20505;-80
2023/03/22 10:47:53;;;;;;;8.45;6.68;;;17.70;99.90;;;;;;5095463;28;20214;-81
2023/03/22 10:50:27;;;;;;;11.05;7.10;;;17.60;99.90;;;;;;5089263;28;20485;-82
2023/03/22 10:52:58;;;;;;;9.13;6.38;;;17.20;99.90;;;;;;5078611;28;20225;-80
2023/03/22 10:55:24;;;;;;;10.52;6.50;;;16.90;99.90;;;;;;5097598;28;20291;-81
2023/03/22 10:58:10;;;;;;;10.00;6.07;;;16.80;99.90;;;;;;5098204;28;20205;-80
2023/03/22 11:00:36;;;;;;;12.57;6.72;;;16.90;99.90;;;;;;5090902;28;20206;-81
2023/03/22 11:03:04;;;;;;;8.35;5.63;;;17.00;99.90;;;;;;5080985;28;20237;-80
2023/03/22 11:05:30;;;;;;;8.88;5.30;;;17.00;99.90;;;;;;5081985;28;20301;-80
2023/03/22 11:07:57;;;;;;;6.35;4.82;;;17.10;99.90;;;;;;5081126;28;20279;-81
2023/03/22 11:10:31;;;;;;;7.18;5.57;;;17.20;99.90;;;;;;5094598;28;20224;-79
2023/03/22 11:13:06;;;;;;;6.35;5.05;;;17.20;99.90;;;;;;5093649;28;20221;-79
2023/03/22 11:15:33;;;;;;;11.90;6.22;;;17.30;99.90;;;;;;5096482;28;20210;-81
2023/03/22 11:18:14;;;;;;;9.45;5.70;;;17.40;99.90;;;;;;5080940;28;20600;-81
2023/03/22 11:20:50;;;;;;;8.13;6.07;;;17.20;99.90;;;;;;5092799;28;20213;-80
2023/03/22 11:23:17;;;;;;;7.47;4.85;;;17.00;99.90;;;;;;5086738;28;20203;-80
2023/03/22 11:25:48;;;;;;;6.47;4.65;;;17.00;99.90;;;;;;5094646;28;20167;-82
2023/03/22 11:28:42;;;;;;;6.78;5.00;;;17.10;99.90;;;;;;5076749;28;20198;-81
2023/03/22 11:31:10;;;;;;;6.72;4.93;;;17.10;99.90;;;;;;5072028;28;20205;-80
2023/03/22 11:33:37;;;;;;;7.68;4.72;;;17.10;99.90;;;;;;5074713;28;20202;-79
2023/03/22 11:36:15;;;;;;;7.18;4.22;;;17.20;99.90;;;;;;5087685;28;20206;-80
2023/03/22 11:38:42;;;;;;;7.35;4.47;;;17.40;99.90;;;;;;5091247;28;20297;-80
2023/03/22 11:41:23;;;;;;;5.90;4.28;;;17.30;99.90;;;;;;5076415;28;20692;-80
2023/03/22 11:44:00;;;;;;;6.82;4.22;;;17.30;99.90;;;;;;5077038;28;20182;-81
2023/03/22 11:46:27;;;;;;;6.88;4.50;;;17.30;99.90;;;;;;5084228;28;20226;-81
2023/03/22 11:48:59;;;;;;;5.97;4.28;;;17.40;99.90;;;;;;5071299;28;20579;-80
2023/03/22 11:51:39;;;;;;;6.65;4.20;;;17.40;99.90;;;;;;5076118;28;20328;-80
2023/03/22 11:54:09;;;;;;;7.35;4.05;;;17.60;99.90;;;;;;5074465;28;20194;-81
2023/03/22 11:56:41;;;;;;;6.10;4.18;;;17.80;99.90;;;;;;5078024;28;20206;-81
2023/03/22 11:59:22;;;;;;;6.82;4.30;;;17.90;99.90;;;;;;5093414;28;20267;-81
2023/03/22 12:01:55;;;;;;;5.45;4.13;;;18.00;99.90;;;;;;5070986;28;20205;-81
2023/03/22 12:04:26;;;;;;;6.80;4.90;;;18.20;99.90;;;;;;5075965;28;20249;-81
2023/03/22 12:06:57;;;;;;;7.88;4.22;;;18.20;99.90;;;;;;5070695;28;20198;-82
2023/03/22 12:09:38;;;;;;;5.32;3.72;;;18.40;99.90;;;;;;5095986;28;20210;-79
2023/03/22 12:12:08;;;;;;;9.15;4.13;;;18.10;99.90;;;;;;5097137;28;20201;-81
2023/03/22 12:14:51;;;;;;;6.10;4.43;;;17.90;99.90;;;;;;5103052;28;20218;-81
2023/03/22 12:17:20;;;;;;;5.85;4.40;;;18.00;99.90;;;;;;5101297;28;20211;-81
2023/03/22 12:20:23;;;;;;;4.15;3.58;;;18.00;99.90;;;;;;5109656;28;20166;-82
2023/03/22 12:22:53;;;;;;;4.65;3.72;;;18.10;99.90;;;;;;5080697;28;20181;-82
2023/03/22 12:25:23;;;;;;;4.57;4.10;;;18.30;99.90;;;;;;5089613;28;20182;-81
2023/03/22 12:28:00;;;;;;;4.85;4.22;;;18.30;99.90;;;;;;5078064;28;20212;-81
2023/03/22 12:30:47;;;;;;;6.15;4.15;;;18.00;99.90;;;;;;5076672;28;20202;-82
2023/03/22 12:33:20;;;;;;;7.18;4.35;;;17.70;99.90;;;;;;5094928;28;20198;-81
2023/03/22 12:35:47;;;;;;;7.43;4.30;;;17.60;99.90;;;;;;5078472;28;20285;-81
2023/03/22 12:38:56;;;;;;;6.95;4.00;;;17.60;99.90;;;;;;5078026;28;20621;-82
2023/03/22 12:41:35;;;;;;;6.85;3.80;;;17.70;99.90;;;;;;5079511;28;20205;-81
2023/03/22 12:44:22;;;;;;;9.68;4.22;;;17.80;99.90;;;;;;5073447;28;20284;-82
2023/03/22 12:46:58;;;;;;;5.75;3.88;;;17.70;99.90;;;;;;5078086;28;20163;-81
2023/03/22 12:49:35;;;;;;;5.45;3.60;;;17.60;99.90;;;;;;5075916;28;20174;-81